createdAt,value
2018-12-29T00:00:54.032Z,21.9
2018-12-29T00:01:56.481Z,21.9
2018-12-29T00:02:58.629Z,21.9
2018-12-29T00:04:00.781Z,21.9
2018-12-29T00:05:02.937Z,22
2018-12-29T00:06:05.386Z,22
2018-12-29T00:07:07.810Z,22
2018-12-29T00:08:09.703Z,22
2018-12-29T00:09:12.128Z,22
2018-12-29T00:10:14.267Z,22
2018-12-29T00:11:16.173Z,22.1
2018-12-29T00:12:18.342Z,22.1
2018-12-29T00:13:20.516Z,22.1
2018-12-29T00:14:22.660Z,22.1
2018-12-29T00:15:24.827Z,22.2
2018-12-29T00:16:26.971Z,22.2
2018-12-29T00:17:29.402Z,22.2
2018-12-29T00:18:31.839Z,22.2
2018-12-29T00:19:34.001Z,22.2
2018-12-29T00:20:36.150Z,22.2
2018-12-29T00:21:38.305Z,22.2
2018-12-29T00:22:40.172Z,22.2
2018-12-29T00:23:42.622Z,22.2
2018-12-29T00:24:45.039Z,22.2
2018-12-29T00:25:46.910Z,22.1
2018-12-29T00:26:49.076Z,22.1
2018-12-29T00:27:51.497Z,22.1
2018-12-29T00:28:53.396Z,22.1
2018-12-29T00:29:55.251Z,22.1
2018-12-29T00:30:57.698Z,22.2
2018-12-29T00:32:00.135Z,22.2
2018-12-29T00:33:02.562Z,22.2
2018-12-29T00:34:04.993Z,22.2
2018-12-29T00:35:07.409Z,22.2
2018-12-29T00:36:09.833Z,22.3
2018-12-29T00:37:12.273Z,22.3
2018-12-29T00:38:14.697Z,22.3
2018-12-29T00:39:16.819Z,22.3
2018-12-29T00:40:19.262Z,22.3
2018-12-29T00:41:21.177Z,22.3
2018-12-29T00:42:23.616Z,22.4
2018-12-29T00:43:26.039Z,22.4
2018-12-29T00:44:28.187Z,22.4
2018-12-29T00:45:30.615Z,22.4
2018-12-29T00:46:33.061Z,22.3
2018-12-29T00:47:35.218Z,22.3
2018-12-29T00:48:37.645Z,22.3
2018-12-29T00:49:40.093Z,22.3
2018-12-29T00:50:42.241Z,22.3
2018-12-29T00:51:44.681Z,22.3
2018-12-29T00:52:47.097Z,22.3
2018-12-29T00:53:49.521Z,22.2
2018-12-29T00:54:51.944Z,22.3
2018-12-29T00:55:54.380Z,22.3
2018-12-29T00:56:56.260Z,22.3
2018-12-29T00:57:58.409Z,22.3
2018-12-29T00:59:00.835Z,22.3
2018-12-29T01:00:03.259Z,22.4
2018-12-29T01:01:05.420Z,22.4
2018-12-29T01:02:07.561Z,22.4
2018-12-29T01:03:09.990Z,22.4
2018-12-29T01:04:12.409Z,22.5
2018-12-29T01:05:14.581Z,22.5
2018-12-29T01:06:17.013Z,22.5
2018-12-29T01:07:19.462Z,22.5
2018-12-29T01:08:21.887Z,22.5
2018-12-29T01:09:24.311Z,22.5
2018-12-29T01:10:26.743Z,22.5
2018-12-29T01:11:29.191Z,22.5
2018-12-29T01:12:31.603Z,22.6
2018-12-29T01:13:34.031Z,22.6
2018-12-29T01:14:36.463Z,22.6
2018-12-29T01:15:38.898Z,22.6
2018-12-29T01:16:41.033Z,22.6
2018-12-29T01:17:43.178Z,22.6
2018-12-29T01:18:45.599Z,22.6
2018-12-29T01:19:47.793Z,22.6
2018-12-29T01:20:49.956Z,22.6
2018-12-29T01:21:52.123Z,22.6
2018-12-29T01:22:54.569Z,22.6
2018-12-29T01:23:56.996Z,22.7
2018-12-29T01:24:59.453Z,22.7
2018-12-29T01:26:01.621Z,22.7
2018-12-29T01:27:04.063Z,22.7
2018-12-29T01:28:06.214Z,22.7
2018-12-29T01:29:08.642Z,22.7
2018-12-29T01:30:11.066Z,22.7
2018-12-29T01:31:13.502Z,22.7
2018-12-29T01:32:15.407Z,22.7
2018-12-29T01:33:17.826Z,22.7
2018-12-29T01:34:19.424Z,22.8
2018-12-29T01:35:21.592Z,22.8
2018-12-29T01:36:24.024Z,22.8
2018-12-29T01:37:26.519Z,22.8
2018-12-29T01:38:28.380Z,22.8
2018-12-29T01:39:30.562Z,22.8
2018-12-29T01:40:32.992Z,22.8
2018-12-29T01:41:35.417Z,22.8
2018-12-29T01:42:37.842Z,22.8
2018-12-29T01:43:40.274Z,22.8
2018-12-29T01:44:42.705Z,22.8
2018-12-29T01:45:44.865Z,22.8
2018-12-29T01:46:47.293Z,22.8
2018-12-29T01:47:49.446Z,22.9
2018-12-29T01:48:51.611Z,22.9
2018-12-29T01:49:54.036Z,22.9
2018-12-29T01:50:56.498Z,22.9
2018-12-29T01:51:58.935Z,22.9
2018-12-29T01:53:01.358Z,22.9
2018-12-29T01:54:03.522Z,22.9
2018-12-29T01:55:06.001Z,22.9
2018-12-29T01:56:08.424Z,22.9
2018-12-29T01:57:10.853Z,22.9
2018-12-29T01:58:12.992Z,22.9
2018-12-29T01:59:15.421Z,22.9
2018-12-29T02:00:17.850Z,22.9
2018-12-29T02:01:20.280Z,22.9
2018-12-29T02:02:37.377Z,22.9
2018-12-29T02:03:39.506Z,22.9
2018-12-29T02:04:41.944Z,22.9
2018-12-29T02:05:44.373Z,22.9
2018-12-29T02:06:46.806Z,22.9
2018-12-29T02:07:49.245Z,22.9
2018-12-29T02:08:50.842Z,22.9
2018-12-29T02:09:53.284Z,22.9
2018-12-29T02:10:55.475Z,23
2018-12-29T02:11:57.334Z,22.9
2018-12-29T02:12:59.474Z,23
2018-12-29T02:14:01.621Z,23
2018-12-29T02:15:04.064Z,23
2018-12-29T02:16:06.189Z,23
2018-12-29T02:17:08.629Z,23
2018-12-29T02:18:10.793Z,23
2018-12-29T02:19:13.222Z,23
2018-12-29T02:20:15.673Z,23
2018-12-29T02:21:18.095Z,23
2018-12-29T02:22:20.532Z,23
2018-12-29T02:23:22.963Z,23
2018-12-29T02:24:25.110Z,23
2018-12-29T02:25:27.544Z,23
2018-12-29T02:26:29.974Z,23
2018-12-29T02:27:32.134Z,23
2018-12-29T02:28:33.771Z,23
2018-12-29T02:29:35.905Z,23
2018-12-29T02:30:38.336Z,23
2018-12-29T02:31:40.763Z,23
2018-12-29T02:32:43.190Z,23
2018-12-29T02:33:45.634Z,23
2018-12-29T02:34:48.060Z,23
2018-12-29T02:35:49.946Z,23
2018-12-29T02:36:52.421Z,23
2018-12-29T02:37:54.852Z,23
2018-12-29T02:38:57.295Z,23
2018-12-29T02:39:59.719Z,23
2018-12-29T02:41:01.884Z,23
2018-12-29T02:42:04.044Z,23
2018-12-29T02:43:06.542Z,23
2018-12-29T02:44:08.972Z,23
2018-12-29T02:45:11.404Z,23
2018-12-29T02:46:13.832Z,23
2018-12-29T02:47:16.259Z,23
2018-12-29T02:48:18.683Z,23.1
2018-12-29T02:49:21.105Z,23.1
2018-12-29T02:50:23.345Z,23.1
2018-12-29T02:51:25.504Z,23.1
2018-12-29T02:52:27.924Z,23.1
2018-12-29T02:53:30.371Z,23.1
2018-12-29T02:54:32.801Z,23.1
2018-12-29T02:55:35.243Z,23.1
2018-12-29T02:56:37.675Z,23.1
2018-12-29T02:57:39.843Z,23.1
2018-12-29T02:58:42.267Z,23.1
2018-12-29T02:59:44.416Z,23
2018-12-29T03:00:46.844Z,23.1
2018-12-29T03:01:48.996Z,23
2018-12-29T03:02:50.874Z,23
2018-12-29T03:03:53.312Z,23
2018-12-29T03:04:55.732Z,23
2018-12-29T03:05:57.920Z,23
2018-12-29T03:07:00.342Z,23
2018-12-29T03:08:02.774Z,23
2018-12-29T03:09:05.204Z,23
2018-12-29T03:10:07.637Z,23
2018-12-29T03:11:10.052Z,23.1
2018-12-29T03:12:12.215Z,23
2018-12-29T03:13:14.370Z,23
2018-12-29T03:14:16.603Z,23
2018-12-29T03:15:18.746Z,23
2018-12-29T03:16:20.903Z,23
2018-12-29T03:17:23.065Z,23
2018-12-29T03:18:25.514Z,23
2018-12-29T03:19:27.674Z,23.1
2018-12-29T03:20:30.093Z,23.1
2018-12-29T03:21:32.522Z,23.1
2018-12-29T03:22:34.948Z,23.1
2018-12-29T03:23:37.450Z,23.1
2018-12-29T03:24:39.885Z,23.1
2018-12-29T03:25:42.306Z,23.1
2018-12-29T03:26:44.194Z,23.1
2018-12-29T03:27:46.332Z,23.1
2018-12-29T03:28:48.515Z,23.1
2018-12-29T03:29:50.665Z,23.1
2018-12-29T03:30:53.100Z,23.1
2018-12-29T03:31:55.532Z,23.1
2018-12-29T03:32:57.815Z,23.1
2018-12-29T03:33:59.698Z,23.1
2018-12-29T03:35:01.833Z,23.1
2018-12-29T03:36:04.337Z,23.1
2018-12-29T03:37:06.793Z,23.1
2018-12-29T03:38:09.216Z,23.1
2018-12-29T03:39:11.376Z,23.1
2018-12-29T03:40:13.508Z,23.1
2018-12-29T03:41:15.948Z,23.1
2018-12-29T03:42:18.118Z,23.1
2018-12-29T03:43:20.551Z,23.1
2018-12-29T03:44:22.715Z,23.1
2018-12-29T03:45:25.144Z,23.1
2018-12-29T03:46:27.576Z,23.1
2018-12-29T03:47:29.990Z,23.1
2018-12-29T03:48:32.410Z,23.1
2018-12-29T03:49:34.572Z,23.1
2018-12-29T03:50:36.712Z,23.1
2018-12-29T03:51:38.881Z,23.1
2018-12-29T03:52:41.314Z,23.1
2018-12-29T03:53:43.753Z,23.1
2018-12-29T03:54:46.185Z,23.1
2018-12-29T03:55:48.345Z,23.1
2018-12-29T03:56:50.499Z,23.1
2018-12-29T03:57:52.935Z,23.2
2018-12-29T03:58:55.087Z,23.1
2018-12-29T03:59:57.572Z,23.1
2018-12-29T04:00:59.995Z,23.1
2018-12-29T04:02:02.444Z,23.1
2018-12-29T04:03:04.609Z,23.1
2018-12-29T04:04:06.474Z,23.1
2018-12-29T04:05:08.911Z,23.1
2018-12-29T04:06:11.331Z,23.1
2018-12-29T04:07:13.763Z,23.1
2018-12-29T04:08:15.915Z,23.1
2018-12-29T04:09:18.357Z,23.1
2018-12-29T04:10:20.547Z,23.1
2018-12-29T04:11:22.674Z,23.1
2018-12-29T04:12:25.099Z,23.1
2018-12-29T04:13:27.539Z,23
2018-12-29T04:14:29.726Z,23
2018-12-29T04:15:32.162Z,23
2018-12-29T04:16:34.613Z,23
2018-12-29T04:17:36.795Z,23
2018-12-29T04:18:39.213Z,23
2018-12-29T04:19:41.364Z,23
2018-12-29T04:20:43.793Z,23
2018-12-29T04:21:45.935Z,23
2018-12-29T04:22:48.095Z,23
2018-12-29T04:23:50.536Z,23
2018-12-29T04:24:52.975Z,23
2018-12-29T04:25:55.400Z,23
2018-12-29T04:26:57.840Z,23
2018-12-29T04:27:59.800Z,23
2018-12-29T04:29:02.225Z,23
2018-12-29T04:30:04.657Z,22.9
2018-12-29T04:31:07.089Z,22.9
2018-12-29T04:32:09.503Z,22.9
2018-12-29T04:33:11.664Z,22.9
2018-12-29T04:34:13.529Z,22.9
2018-12-29T04:35:15.684Z,22.9
2018-12-29T04:36:18.123Z,22.9
2018-12-29T04:37:20.257Z,22.9
2018-12-29T04:38:22.404Z,22.9
2018-12-29T04:39:23.985Z,22.9
2018-12-29T04:40:26.402Z,22.9
2018-12-29T04:41:28.564Z,22.9
2018-12-29T04:42:31.013Z,22.9
2018-12-29T04:43:33.431Z,22.9
2018-12-29T04:44:35.306Z,22.9
2018-12-29T04:45:37.751Z,22.9
2018-12-29T04:46:39.972Z,22.9
2018-12-29T04:47:42.392Z,22.9
2018-12-29T04:48:44.829Z,22.9
2018-12-29T04:49:47.245Z,22.9
2018-12-29T04:50:49.675Z,22.9
2018-12-29T04:51:51.832Z,22.9
2018-12-29T04:52:54.274Z,22.9
2018-12-29T04:53:56.769Z,22.9
2018-12-29T04:54:59.210Z,22.9
2018-12-29T04:56:01.641Z,22.8
2018-12-29T04:57:04.073Z,22.8
2018-12-29T04:58:05.936Z,22.8
2018-12-29T04:59:08.374Z,22.8
2018-12-29T05:00:10.796Z,22.8
2018-12-29T05:01:12.672Z,22.8
2018-12-29T05:02:15.095Z,22.8
2018-12-29T05:03:17.515Z,22.8
2018-12-29T05:04:19.661Z,22.8
2018-12-29T05:05:22.095Z,22.8
2018-12-29T05:06:24.514Z,22.8
2018-12-29T05:07:26.955Z,22.8
2018-12-29T05:08:29.379Z,22.8
2018-12-29T05:09:31.556Z,22.8
2018-12-29T05:10:33.721Z,22.8
2018-12-29T05:11:36.175Z,22.8
2018-12-29T05:12:38.605Z,22.8
2018-12-29T05:13:40.775Z,22.8
2018-12-29T05:14:42.944Z,22.8
2018-12-29T05:15:45.366Z,22.8
2018-12-29T05:16:47.791Z,22.8
2018-12-29T05:17:49.671Z,22.8
2018-12-29T05:18:51.825Z,22.8
2018-12-29T05:19:53.721Z,22.8
2018-12-29T05:20:56.151Z,22.8
2018-12-29T05:21:58.303Z,22.8
2018-12-29T05:23:00.185Z,22.8
2018-12-29T05:24:02.064Z,22.8
2018-12-29T05:25:04.243Z,22.8
2018-12-29T05:26:06.411Z,22.8
2018-12-29T05:27:08.844Z,22.8
2018-12-29T05:28:11.290Z,22.8
2018-12-29T05:29:12.899Z,22.8
2018-12-29T05:30:15.061Z,22.8
2018-12-29T05:31:16.933Z,22.8
2018-12-29T05:32:19.351Z,22.8
2018-12-29T05:33:21.778Z,22.8
2018-12-29T05:34:23.947Z,22.8
2018-12-29T05:35:26.112Z,22.8
2018-12-29T05:36:28.271Z,22.8
2018-12-29T05:37:30.704Z,22.8
2018-12-29T05:38:33.181Z,22.8
2018-12-29T05:39:35.039Z,22.8
2018-12-29T05:40:36.907Z,22.8
2018-12-29T05:41:39.334Z,22.8
2018-12-29T05:42:41.762Z,22.8
2018-12-29T05:43:43.915Z,22.8
2018-12-29T05:44:46.341Z,22.8
2018-12-29T05:45:48.778Z,22.8
2018-12-29T05:46:50.930Z,22.8
2018-12-29T05:47:53.407Z,22.8
2018-12-29T05:48:55.844Z,22.8
2018-12-29T05:49:58.282Z,22.8
2018-12-29T05:51:00.723Z,22.8
2018-12-29T05:52:02.957Z,22.8
2018-12-29T05:53:05.395Z,22.8
2018-12-29T05:54:07.572Z,22.8
2018-12-29T05:55:09.458Z,22.8
2018-12-29T05:56:11.876Z,22.8
2018-12-29T05:57:14.032Z,22.8
2018-12-29T05:58:16.164Z,22.8
2018-12-29T05:59:18.590Z,22.8
2018-12-29T06:00:21.018Z,22.8
2018-12-29T06:01:23.460Z,22.8
2018-12-29T06:02:25.600Z,22.8
2018-12-29T06:03:28.025Z,22.8
2018-12-29T06:04:30.195Z,22.8
2018-12-29T06:05:32.630Z,22.8
2018-12-29T06:06:35.062Z,22.8
2018-12-29T06:07:37.493Z,22.8
2018-12-29T06:08:39.650Z,22.8
2018-12-29T06:09:42.074Z,22.8
2018-12-29T06:10:44.513Z,22.8
2018-12-29T06:11:46.650Z,22.8
2018-12-29T06:12:49.075Z,22.8
2018-12-29T06:13:51.504Z,22.8
2018-12-29T06:14:53.375Z,22.8
2018-12-29T06:15:55.531Z,22.9
2018-12-29T06:16:57.974Z,22.8
2018-12-29T06:18:00.411Z,22.8
2018-12-29T06:19:02.572Z,22.8
2018-12-29T06:20:05.004Z,22.8
2018-12-29T06:21:07.446Z,22.8
2018-12-29T06:22:09.622Z,22.8
2018-12-29T06:23:12.054Z,22.8
2018-12-29T06:24:14.487Z,22.8
2018-12-29T06:25:17.002Z,22.8
2018-12-29T06:26:19.428Z,22.8
2018-12-29T06:27:21.853Z,22.8
2018-12-29T06:28:24.014Z,22.8
2018-12-29T06:29:26.435Z,22.8
2018-12-29T06:30:28.605Z,22.8
2018-12-29T06:31:31.032Z,22.8
2018-12-29T06:32:33.475Z,22.8
2018-12-29T06:33:35.905Z,22.8
2018-12-29T06:34:38.338Z,22.8
2018-12-29T06:35:40.770Z,22.8
2018-12-29T06:36:42.938Z,22.8
2018-12-29T06:37:45.361Z,22.8
2018-12-29T06:38:47.539Z,22.8
2018-12-29T06:39:49.971Z,22.8
2018-12-29T06:40:52.418Z,22.8
2018-12-29T06:41:54.844Z,22.8
2018-12-29T06:42:57.264Z,22.8
2018-12-29T06:43:59.125Z,22.8
2018-12-29T06:45:01.568Z,22.8
2018-12-29T06:46:03.463Z,22.8
2018-12-29T06:47:05.897Z,22.8
2018-12-29T06:48:08.334Z,22.8
2018-12-29T06:49:10.222Z,22.8
2018-12-29T06:50:12.662Z,22.8
2018-12-29T06:51:14.820Z,22.8
2018-12-29T06:52:17.246Z,22.8
2018-12-29T06:53:19.400Z,22.8
2018-12-29T06:54:21.823Z,22.8
2018-12-29T06:55:23.985Z,22.8
2018-12-29T06:56:26.144Z,22.8
2018-12-29T06:57:28.314Z,22.8
2018-12-29T06:58:30.450Z,22.8
2018-12-29T06:59:32.884Z,22.8
2018-12-29T07:00:35.316Z,22.8
2018-12-29T07:01:37.514Z,22.8
2018-12-29T07:02:39.947Z,22.8
2018-12-29T07:03:41.818Z,22.8
2018-12-29T07:04:44.248Z,22.8
2018-12-29T07:05:46.665Z,22.8
2018-12-29T07:06:49.104Z,22.8
2018-12-29T07:07:51.540Z,22.8
2018-12-29T07:08:53.966Z,22.8
2018-12-29T07:09:56.124Z,22.8
2018-12-29T07:10:58.263Z,22.8
2018-12-29T07:12:00.751Z,22.8
2018-12-29T07:13:03.180Z,22.8
2018-12-29T07:14:05.349Z,22.8
2018-12-29T07:15:07.777Z,22.8
2018-12-29T07:16:10.206Z,22.8
2018-12-29T07:17:12.635Z,22.8
2018-12-29T07:18:15.058Z,22.8
2018-12-29T07:19:17.511Z,22.8
2018-12-29T07:20:19.952Z,22.8
2018-12-29T07:21:22.388Z,22.8
2018-12-29T07:22:24.816Z,22.8
2018-12-29T07:23:27.282Z,22.8
2018-12-29T07:24:29.162Z,22.8
2018-12-29T07:25:31.595Z,22.8
2018-12-29T07:26:34.035Z,22.8
2018-12-29T07:27:36.493Z,22.8
2018-12-29T07:28:38.926Z,22.8
2018-12-29T07:29:41.347Z,22.8
2018-12-29T07:30:43.780Z,22.8
2018-12-29T07:31:46.268Z,22.8
2018-12-29T07:32:48.484Z,22.8
2018-12-29T07:33:50.649Z,22.8
2018-12-29T07:34:53.096Z,22.8
2018-12-29T07:35:55.251Z,22.8
2018-12-29T07:36:57.677Z,22.8
2018-12-29T07:38:00.107Z,22.8
2018-12-29T07:39:02.526Z,22.8
2018-12-29T07:40:04.964Z,22.8
2018-12-29T07:41:07.412Z,22.8
2018-12-29T07:42:09.307Z,22.8
2018-12-29T07:43:11.728Z,22.8
2018-12-29T07:44:14.144Z,22.8
2018-12-29T07:45:16.574Z,22.8
2018-12-29T07:46:18.734Z,22.8
2018-12-29T07:47:21.161Z,22.8
2018-12-29T07:48:23.605Z,22.8
2018-12-29T07:49:25.490Z,22.8
2018-12-29T07:50:27.934Z,22.8
2018-12-29T07:51:30.366Z,22.8
2018-12-29T07:52:32.784Z,22.8
2018-12-29T07:53:35.224Z,22.8
2018-12-29T07:54:37.115Z,22.8
2018-12-29T07:55:39.331Z,22.8
2018-12-29T07:56:41.765Z,22.8
2018-12-29T07:57:44.207Z,22.8
2018-12-29T07:58:46.632Z,22.8
2018-12-29T07:59:49.084Z,22.8
2018-12-29T08:00:51.524Z,22.8
2018-12-29T08:01:53.957Z,22.8
2018-12-29T08:02:56.120Z,22.8
2018-12-29T08:03:58.550Z,22.8
2018-12-29T08:05:00.982Z,22.8
2018-12-29T08:06:03.175Z,22.8
2018-12-29T08:07:05.346Z,22.8
2018-12-29T08:08:07.512Z,22.8
2018-12-29T08:09:09.401Z,22.8
2018-12-29T08:10:11.856Z,22.8
2018-12-29T08:11:14.406Z,22.8
2018-12-29T08:12:16.840Z,22.8
2018-12-29T08:13:19.273Z,22.8
2018-12-29T08:14:21.708Z,22.8
2018-12-29T08:15:23.874Z,22.8
2018-12-29T08:16:26.043Z,22.8
2018-12-29T08:17:28.226Z,22.8
2018-12-29T08:18:30.662Z,22.8
2018-12-29T08:19:32.827Z,22.8
2018-12-29T08:20:35.268Z,22.8
2018-12-29T08:21:37.435Z,22.8
2018-12-29T08:22:39.608Z,22.8
2018-12-29T08:23:42.044Z,22.8
2018-12-29T08:24:44.509Z,22.8
2018-12-29T08:25:46.953Z,22.8
2018-12-29T08:26:48.815Z,22.8
2018-12-29T08:27:50.995Z,22.8
2018-12-29T08:28:53.439Z,22.8
2018-12-29T08:29:55.597Z,22.8
2018-12-29T08:30:58.080Z,22.8
2018-12-29T08:32:00.238Z,22.8
2018-12-29T08:33:02.663Z,22.8
2018-12-29T08:34:05.103Z,22.8
2018-12-29T08:35:09.031Z,22.8
2018-12-29T08:36:11.490Z,22.8
2018-12-29T08:37:14.232Z,22.8
2018-12-29T08:38:16.669Z,22.8
2018-12-29T08:39:18.894Z,22.8
2018-12-29T08:40:21.342Z,22.8
2018-12-29T08:41:23.809Z,22.8
2018-12-29T08:42:25.435Z,22.8
2018-12-29T08:43:27.884Z,22.8
2018-12-29T08:44:30.058Z,22.8
2018-12-29T08:45:32.211Z,22.8
2018-12-29T08:46:34.366Z,22.8
2018-12-29T08:47:36.524Z,22.8
2018-12-29T08:48:38.681Z,22.8
2018-12-29T08:49:42.061Z,22.8
2018-12-29T08:50:44.225Z,22.8
2018-12-29T08:51:46.130Z,22.8
2018-12-29T08:52:48.307Z,22.8
2018-12-29T08:53:50.738Z,22.8
2018-12-29T08:54:53.164Z,22.8
2018-12-29T08:55:55.319Z,22.8
2018-12-29T08:56:57.449Z,22.8
2018-12-29T08:57:59.359Z,22.8
2018-12-29T08:59:01.490Z,22.8
2018-12-29T09:00:03.940Z,22.8
2018-12-29T09:01:06.378Z,22.8
2018-12-29T09:02:08.557Z,22.8
2018-12-29T09:03:10.696Z,22.8
2018-12-29T09:04:13.143Z,22.8
2018-12-29T09:05:15.043Z,22.8
2018-12-29T09:06:17.194Z,22.8
2018-12-29T09:07:19.085Z,22.8
2018-12-29T09:08:21.258Z,22.8
2018-12-29T09:09:23.686Z,22.8
2018-12-29T09:10:26.147Z,22.8
2018-12-29T09:11:28.038Z,22.8
2018-12-29T09:12:29.646Z,22.8
2018-12-29T09:13:32.097Z,22.8
2018-12-29T09:14:34.262Z,22.8
2018-12-29T09:15:36.423Z,22.8
2018-12-29T09:16:38.352Z,22.8
2018-12-29T09:17:40.791Z,22.8
2018-12-29T09:19:47.955Z,22.8
2018-12-29T09:20:50.126Z,22.8
2018-12-29T09:21:52.559Z,22.8
2018-12-29T09:22:55.032Z,22.8
2018-12-29T09:23:57.191Z,22.8
2018-12-29T09:24:59.627Z,22.8
2018-12-29T09:26:02.205Z,22.8
2018-12-29T09:27:05.953Z,22.8
2018-12-29T09:28:08.117Z,22.8
2018-12-29T09:29:10.278Z,22.8
2018-12-29T09:30:12.707Z,22.8
2018-12-29T09:31:15.131Z,22.8
2018-12-29T09:32:17.610Z,22.8
2018-12-29T09:33:19.779Z,22.8
2018-12-29T09:34:23.558Z,22.8
2018-12-29T09:35:25.998Z,22.8
2018-12-29T09:36:28.149Z,22.8
2018-12-29T09:37:30.297Z,22.8
2018-12-29T09:38:32.741Z,22.8
2018-12-29T09:39:35.170Z,22.8
2018-12-29T09:40:37.605Z,22.8
2018-12-29T09:41:40.055Z,22.8
2018-12-29T09:42:42.484Z,22.8
2018-12-29T09:43:44.638Z,22.8
2018-12-29T09:44:46.785Z,22.8
2018-12-29T09:45:49.225Z,22.8
2018-12-29T09:46:51.090Z,22.8
2018-12-29T09:47:53.536Z,22.8
2018-12-29T09:48:55.689Z,22.8
2018-12-29T09:49:58.128Z,22.8
2018-12-29T09:51:00.257Z,22.8
2018-12-29T09:52:02.676Z,22.9
2018-12-29T09:53:05.143Z,22.9
2018-12-29T09:54:07.609Z,23
2018-12-29T09:55:09.203Z,23
2018-12-29T09:56:11.367Z,23
2018-12-29T09:57:13.526Z,23.1
2018-12-29T09:58:15.685Z,23.1
2018-12-29T09:59:18.117Z,23.2
2018-12-29T10:00:20.011Z,23.2
2018-12-29T10:01:22.454Z,23.3
2018-12-29T10:02:24.893Z,23.3
2018-12-29T10:03:27.033Z,23.3
2018-12-29T10:04:29.455Z,23.4
2018-12-29T10:05:31.317Z,23.4
2018-12-29T10:06:33.751Z,23.5
2018-12-29T10:07:36.187Z,23.5
2018-12-29T10:08:38.624Z,23.5
2018-12-29T10:09:41.055Z,23.6
2018-12-29T10:10:43.487Z,23.6
2018-12-29T10:11:45.917Z,23.6
2018-12-29T10:12:48.334Z,23.7
2018-12-29T10:13:50.489Z,23.7
2018-12-29T10:14:52.664Z,23.7
2018-12-29T10:15:54.549Z,23.7
2018-12-29T10:16:56.985Z,23.8
2018-12-29T10:17:59.436Z,23.8
2018-12-29T10:19:01.875Z,23.8
2018-12-29T10:20:04.033Z,23.8
2018-12-29T10:21:06.188Z,23.9
2018-12-29T10:22:08.619Z,23.9
2018-12-29T10:23:11.058Z,23.9
2018-12-29T10:24:13.497Z,23.9
2018-12-29T10:27:02.342Z,24
2018-12-29T10:28:04.501Z,24
2018-12-29T10:29:06.953Z,24
2018-12-29T10:30:09.379Z,24
2018-12-29T10:31:11.804Z,24
2018-12-29T10:32:14.233Z,24
2018-12-29T10:33:16.671Z,24
2018-12-29T10:34:19.098Z,24
2018-12-29T10:35:21.522Z,24
2018-12-29T10:36:23.959Z,24
2018-12-29T10:37:26.455Z,24.1
2018-12-29T10:38:28.896Z,24.1
2018-12-29T10:39:31.067Z,24.1
2018-12-29T10:40:32.955Z,24.1
2018-12-29T10:41:35.414Z,24.1
2018-12-29T10:42:37.572Z,24.1
2018-12-29T10:43:39.459Z,24.1
2018-12-29T10:44:41.629Z,24.1
2018-12-29T10:45:43.793Z,24.2
2018-12-29T10:46:46.233Z,24.2
2018-12-29T10:47:48.669Z,24.2
2018-12-29T10:48:51.108Z,24.2
2018-12-29T10:49:53.277Z,24.2
2018-12-29T10:50:55.704Z,24.2
2018-12-29T10:51:57.886Z,24.2
2018-12-29T10:53:00.327Z,24.2
2018-12-29T10:54:02.463Z,24.2
2018-12-29T10:55:04.913Z,24.1
2018-12-29T10:56:07.353Z,24.1
2018-12-29T10:57:09.485Z,24.1
2018-12-29T10:58:11.913Z,24.1
2018-12-29T10:59:13.795Z,24
2018-12-29T11:00:15.956Z,24
2018-12-29T11:01:18.389Z,24
2018-12-29T11:02:20.824Z,24
2018-12-29T11:03:23.280Z,24
2018-12-29T11:04:25.479Z,24
2018-12-29T11:05:27.339Z,24
2018-12-29T11:06:29.502Z,24
2018-12-29T11:07:31.676Z,24
2018-12-29T11:08:33.734Z,23.9
2018-12-29T11:09:36.162Z,23.9
2018-12-29T11:10:38.323Z,23.9
2018-12-29T11:11:40.515Z,23.9
2018-12-29T11:12:42.948Z,23.9
2018-12-29T11:13:45.387Z,23.9
2018-12-29T11:14:47.275Z,23.8
2018-12-29T11:15:49.410Z,23.8
2018-12-29T11:16:51.855Z,23.8
2018-12-29T11:17:54.277Z,23.8
2018-12-29T11:18:56.713Z,23.8
2018-12-29T11:19:59.139Z,23.8
2018-12-29T11:21:02.447Z,23.7
2018-12-29T11:22:04.691Z,23.7
2018-12-29T11:23:06.825Z,23.7
2018-12-29T11:24:09.265Z,23.7
2018-12-29T11:25:11.693Z,23.7
2018-12-29T11:26:13.864Z,23.7
2018-12-29T11:27:15.768Z,23.6
2018-12-29T11:28:18.203Z,23.6
2018-12-29T11:29:20.641Z,23.6
2018-12-29T11:30:22.543Z,23.6
2018-12-29T11:31:24.405Z,23.6
2018-12-29T11:32:26.284Z,23.6
2018-12-29T11:33:28.738Z,23.6
2018-12-29T11:34:30.893Z,23.6
2018-12-29T11:35:33.065Z,23.5
2018-12-29T11:36:35.493Z,23.5
2018-12-29T11:37:37.619Z,23.5
2018-12-29T11:38:39.769Z,23.5
2018-12-29T11:39:41.906Z,23.5
2018-12-29T11:40:43.854Z,23.5
2018-12-29T11:41:46.373Z,23.5
2018-12-29T11:42:48.820Z,23.5
2018-12-29T11:43:50.986Z,23.4
2018-12-29T11:44:53.423Z,23.4
2018-12-29T11:45:55.859Z,23.4
2018-12-29T11:46:58.009Z,23.4
2018-12-29T11:48:00.165Z,23.4
2018-12-29T11:49:03.038Z,23.4
2018-12-29T11:50:05.454Z,23.4
2018-12-29T11:51:07.896Z,23.4
2018-12-29T11:52:11.081Z,23.4
2018-12-29T11:53:13.784Z,23.4
2018-12-29T11:54:16.233Z,23.4
2018-12-29T11:55:18.692Z,23.4
2018-12-29T11:56:20.581Z,23.4
2018-12-29T11:57:23.014Z,23.3
2018-12-29T11:58:25.438Z,23.4
2018-12-29T11:59:27.309Z,23.3
2018-12-29T12:00:29.453Z,23.3
2018-12-29T12:01:31.893Z,23.3
2018-12-29T12:02:34.078Z,23.3
2018-12-29T12:03:36.240Z,23.3
2018-12-29T12:04:38.425Z,23.3
2018-12-29T12:05:41.374Z,23.3
2018-12-29T12:06:44.261Z,23.3
2018-12-29T12:07:47.220Z,23.3
2018-12-29T12:08:49.644Z,23.3
2018-12-29T12:09:51.817Z,23.3
2018-12-29T12:10:54.301Z,23.3
2018-12-29T12:11:56.190Z,23.3
2018-12-29T12:12:58.354Z,23.3
2018-12-29T12:14:00.520Z,23.3
2018-12-29T12:15:02.953Z,23.3
2018-12-29T12:16:04.839Z,23.3
2018-12-29T12:17:07.272Z,23.2
2018-12-29T12:18:09.463Z,23.3
2018-12-29T12:19:12.049Z,23.3
2018-12-29T12:20:14.930Z,23.3
2018-12-29T12:21:18.252Z,23.3
2018-12-29T12:22:20.750Z,23.4
2018-12-29T12:23:22.910Z,23.4
2018-12-29T12:24:25.347Z,23.4
2018-12-29T12:25:27.902Z,23.5
2018-12-29T12:26:30.971Z,23.5
2018-12-29T12:27:33.686Z,23.6
2018-12-29T12:28:36.345Z,23.6
2018-12-29T12:29:38.797Z,23.6
2018-12-29T12:30:41.621Z,23.7
2018-12-29T12:31:44.395Z,23.7
2018-12-29T12:32:46.842Z,23.7
2018-12-29T12:33:49.297Z,23.7
2018-12-29T12:34:51.462Z,23.8
2018-12-29T12:35:54.252Z,23.8
2018-12-29T12:36:56.425Z,23.9
2018-12-29T12:37:58.623Z,23.9
2018-12-29T12:39:01.689Z,23.9
2018-12-29T12:40:04.814Z,23.9
2018-12-29T12:41:07.267Z,23.9
2018-12-29T12:42:09.456Z,24
2018-12-29T12:43:12.262Z,24
2018-12-29T12:44:15.929Z,24
2018-12-29T12:45:18.423Z,24
2018-12-29T12:46:21.233Z,24.1
2018-12-29T12:47:24.537Z,24.1
2018-12-29T12:48:26.815Z,24.1
2018-12-29T12:49:29.555Z,24.1
2018-12-29T12:50:31.433Z,24.1
2018-12-29T12:51:33.614Z,24.1
2018-12-29T12:52:36.059Z,24.1
2018-12-29T12:53:38.509Z,24.1
2018-12-29T12:54:41.620Z,24.2
2018-12-29T12:55:45.486Z,24.2
2018-12-29T12:56:49.269Z,24.2
2018-12-29T12:57:52.829Z,24.2
2018-12-29T12:58:56.670Z,24.2
2018-12-29T13:00:00.683Z,24.2
2018-12-29T13:01:04.419Z,24.2
2018-12-29T13:02:06.672Z,24.2
2018-12-29T13:03:09.155Z,24.2
2018-12-29T13:04:11.308Z,24.2
2018-12-29T13:05:13.443Z,24.2
2018-12-29T13:06:15.610Z,24.2
2018-12-29T13:07:17.809Z,24.2
2018-12-29T13:08:19.961Z,24.2
2018-12-29T13:09:22.389Z,24.2
2018-12-29T13:10:24.547Z,24.2
2018-12-29T13:11:27.003Z,24.2
2018-12-29T13:12:29.434Z,24.2
2018-12-29T13:13:32.129Z,24.2
2018-12-29T13:14:35.124Z,24.2
2018-12-29T13:15:37.905Z,24.3
2018-12-29T13:16:40.339Z,24.3
2018-12-29T13:17:42.772Z,24.3
2018-12-29T13:18:45.272Z,24.3
2018-12-29T13:19:47.523Z,24.3
2018-12-29T13:20:49.687Z,24.3
2018-12-29T13:21:51.860Z,24.3
2018-12-29T13:22:54.013Z,24.4
2018-12-29T13:23:56.475Z,24.4
2018-12-29T13:24:58.897Z,24.4
2018-12-29T13:26:01.074Z,24.4
2018-12-29T13:27:03.503Z,24.4
2018-12-29T13:28:06.199Z,24.4
2018-12-29T13:29:09.206Z,24.4
2018-12-29T13:30:11.663Z,24.4
2018-12-29T13:31:13.839Z,24.4
2018-12-29T13:32:15.981Z,24.4
2018-12-29T13:33:18.405Z,24.4
2018-12-29T13:34:20.865Z,24.4
2018-12-29T13:35:23.312Z,24.4
2018-12-29T13:36:25.747Z,24.4
2018-12-29T13:37:27.892Z,24.4
2018-12-29T13:38:30.353Z,24.5
2018-12-29T13:39:32.501Z,24.5
2018-12-29T13:40:34.388Z,24.5
2018-12-29T13:41:37.147Z,24.5
2018-12-29T13:42:40.416Z,24.5
2018-12-29T13:43:42.831Z,24.5
2018-12-29T13:44:44.973Z,24.5
2018-12-29T13:45:47.463Z,24.5
2018-12-29T13:46:49.900Z,24.5
2018-12-29T13:47:52.054Z,24.5
2018-12-29T13:48:54.293Z,24.5
2018-12-29T13:49:56.776Z,24.5
2018-12-29T13:50:58.952Z,24.5
2018-12-29T13:52:01.113Z,24.5
2018-12-29T13:53:03.273Z,24.5
2018-12-29T13:54:05.712Z,24.5
2018-12-29T13:55:08.374Z,24.5
2018-12-29T13:56:10.910Z,24.5
2018-12-29T13:57:13.965Z,24.5
2018-12-29T13:58:16.407Z,24.5
2018-12-29T13:59:18.869Z,24.5
2018-12-29T14:00:21.307Z,24.5